sensor_id;sensor_type;location;lat;lon;timestamp;P1;durP1;ratioP1;P2;durP2;ratioP2
45540;SDS011;31265;49.680;8.608;2023-05-10T00:00:37;0.25;;;0.17;;
45540;SDS011;31265;49.680;8.608;2023-05-10T00:03:05;1.90;;;0.22;;
45540;SDS011;31265;49.680;8.608;2023-05-10T00:05:34;0.25;;;0.10;;
45540;SDS011;31265;49.680;8.608;2023-05-10T00:08:02;0.73;;;0.35;;
45540;SDS011;31265;49.680;8.608;2023-05-10T00:10:30;0.28;;;0.20;;
45540;SDS011;31265;49.680;8.608;2023-05-10T00:12:58;1.60;;;0.40;;
45540;SDS011;31265;49.680;8.608;2023-05-10T00:15:27;0.93;;;0.30;;
45540;SDS011;31265;49.680;8.608;2023-05-10T00:17:58;0.95;;;0.35;;
45540;SDS011;31265;49.680;8.608;2023-05-10T00:20:27;0.98;;;0.47;;
45540;SDS011;31265;49.680;8.608;2023-05-10T00:22:55;1.25;;;0.30;;
45540;SDS011;31265;49.680;8.608;2023-05-10T00:25:24;0.28;;;0.20;;
45540;SDS011;31265;49.680;8.608;2023-05-10T00:27:52;1.38;;;0.30;;
45540;SDS011;31265;49.680;8.608;2023-05-10T00:30:22;1.35;;;0.50;;
45540;SDS011;31265;49.680;8.608;2023-05-10T00:32:50;0.40;;;0.20;;
45540;SDS011;31265;49.680;8.608;2023-05-10T00:35:21;1.55;;;0.60;;
45540;SDS011;31265;49.680;8.608;2023-05-10T00:37:50;1.10;;;0.32;;
45540;SDS011;31265;49.680;8.608;2023-05-10T00:40:20;1.23;;;0.40;;
45540;SDS011;31265;49.680;8.608;2023-05-10T00:42:54;0.60;;;0.30;;
45540;SDS011;31265;49.680;8.608;2023-05-10T00:45:23;0.88;;;0.38;;
45540;SDS011;31265;49.680;8.608;2023-05-10T00:50:24;1.77;;;0.57;;
45540;SDS011;31265;49.680;8.608;2023-05-10T00:52:52;1.27;;;0.30;;
45540;SDS011;31265;49.680;8.608;2023-05-10T00:55:21;1.10;;;0.40;;
45540;SDS011;31265;49.680;8.608;2023-05-10T00:57:50;2.70;;;0.60;;
45540;SDS011;31265;49.680;8.608;2023-05-10T01:00:19;0.70;;;0.30;;
45540;SDS011;31265;49.680;8.608;2023-05-10T01:02:48;0.77;;;0.35;;
45540;SDS011;31265;49.680;8.608;2023-05-10T01:07:48;1.35;;;0.50;;
45540;SDS011;31265;49.680;8.608;2023-05-10T01:10:16;1.00;;;0.45;;
45540;SDS011;31265;49.680;8.608;2023-05-10T01:12:45;1.08;;;0.55;;
45540;SDS011;31265;49.680;8.608;2023-05-10T01:15:15;1.17;;;0.47;;
45540;SDS011;31265;49.680;8.608;2023-05-10T01:17:44;0.68;;;0.50;;
45540;SDS011;31265;49.680;8.608;2023-05-10T01:20:15;0.82;;;0.35;;
45540;SDS011;31265;49.680;8.608;2023-05-10T01:22:52;1.88;;;0.60;;
45540;SDS011;31265;49.680;8.608;2023-05-10T01:31:54;1.02;;;0.50;;
45540;SDS011;31265;49.680;8.608;2023-05-10T01:34:42;2.08;;;0.70;;
45540;SDS011;31265;49.680;8.608;2023-05-10T01:37:21;0.38;;;0.28;;
45540;SDS011;31265;49.680;8.608;2023-05-10T01:39:55;2.47;;;1.05;;
45540;SDS011;31265;49.680;8.608;2023-05-10T01:42:29;1.48;;;0.68;;
45540;SDS011;31265;49.680;8.608;2023-05-10T01:45:06;0.93;;;0.40;;
45540;SDS011;31265;49.680;8.608;2023-05-10T01:47:43;1.50;;;0.70;;
45540;SDS011;31265;49.680;8.608;2023-05-10T01:50:15;1.92;;;0.60;;
45540;SDS011;31265;49.680;8.608;2023-05-10T01:52:47;1.02;;;0.45;;
45540;SDS011;31265;49.680;8.608;2023-05-10T01:55:20;1.25;;;0.50;;
45540;SDS011;31265;49.680;8.608;2023-05-10T01:57:53;1.38;;;0.60;;
45540;SDS011;31265;49.680;8.608;2023-05-10T02:00:26;7.63;;;1.10;;
45540;SDS011;31265;49.680;8.608;2023-05-10T02:02:58;1.15;;;0.60;;
45540;SDS011;31265;49.680;8.608;2023-05-10T02:05:30;1.73;;;0.88;;
45540;SDS011;31265;49.680;8.608;2023-05-10T02:08:01;1.00;;;0.40;;
45540;SDS011;31265;49.680;8.608;2023-05-10T02:10:33;2.47;;;0.90;;
45540;SDS011;31265;49.680;8.608;2023-05-10T02:13:03;2.67;;;0.65;;
45540;SDS011;31265;49.680;8.608;2023-05-10T02:15:35;2.70;;;0.82;;
45540;SDS011;31265;49.680;8.608;2023-05-10T02:18:06;1.67;;;0.65;;
45540;SDS011;31265;49.680;8.608;2023-05-10T02:20:36;2.03;;;0.82;;
45540;SDS011;31265;49.680;8.608;2023-05-10T02:23:06;1.65;;;0.82;;
45540;SDS011;31265;49.680;8.608;2023-05-10T02:25:37;1.55;;;0.60;;
45540;SDS011;31265;49.680;8.608;2023-05-10T02:28:07;1.58;;;1.00;;
45540;SDS011;31265;49.680;8.608;2023-05-10T02:30:38;1.88;;;0.80;;
45540;SDS011;31265;49.680;8.608;2023-05-10T02:33:08;1.27;;;0.57;;
45540;SDS011;31265;49.680;8.608;2023-05-10T02:35:37;1.45;;;0.60;;
45540;SDS011;31265;49.680;8.608;2023-05-10T02:38:08;1.38;;;0.68;;
45540;SDS011;31265;49.680;8.608;2023-05-10T02:40:38;1.65;;;0.65;;
45540;SDS011;31265;49.680;8.608;2023-05-10T02:43:09;2.50;;;0.68;;
45540;SDS011;31265;49.680;8.608;2023-05-10T02:45:41;2.05;;;1.00;;
45540;SDS011;31265;49.680;8.608;2023-05-10T02:48:12;1.23;;;0.52;;
45540;SDS011;31265;49.680;8.608;2023-05-10T02:50:41;1.90;;;0.73;;
45540;SDS011;31265;49.680;8.608;2023-05-10T02:53:14;2.90;;;0.80;;
45540;SDS011;31265;49.680;8.608;2023-05-10T02:55:49;1.65;;;0.80;;
45540;SDS011;31265;49.680;8.608;2023-05-10T02:58:19;1.67;;;0.63;;
45540;SDS011;31265;49.680;8.608;2023-05-10T03:00:48;1.52;;;0.57;;
45540;SDS011;31265;49.680;8.608;2023-05-10T03:03:18;2.13;;;0.60;;
45540;SDS011;31265;49.680;8.608;2023-05-10T03:05:49;1.75;;;0.52;;
45540;SDS011;31265;49.680;8.608;2023-05-10T03:08:20;1.15;;;0.52;;
45540;SDS011;31265;49.680;8.608;2023-05-10T03:10:53;1.55;;;0.80;;
45540;SDS011;31265;49.680;8.608;2023-05-10T03:13:31;1.27;;;0.60;;
45540;SDS011;31265;49.680;8.608;2023-05-10T03:16:05;1.35;;;0.60;;
45540;SDS011;31265;49.680;8.608;2023-05-10T03:18:42;1.67;;;0.85;;
45540;SDS011;31265;49.680;8.608;2023-05-10T03:21:13;1.52;;;0.65;;
45540;SDS011;31265;49.680;8.608;2023-05-10T03:23:47;1.85;;;0.90;;
45540;SDS011;31265;49.680;8.608;2023-05-10T03:26:20;1.40;;;0.77;;
45540;SDS011;31265;49.680;8.608;2023-05-10T03:29:00;1.25;;;0.73;;
45540;SDS011;31265;49.680;8.608;2023-05-10T03:31:30;2.15;;;0.98;;
45540;SDS011;31265;49.680;8.608;2023-05-10T03:34:00;2.38;;;1.08;;
45540;SDS011;31265;49.680;8.608;2023-05-10T03:36:29;1.98;;;0.82;;
45540;SDS011;31265;49.680;8.608;2023-05-10T03:39:00;1.45;;;0.73;;
45540;SDS011;31265;49.680;8.608;2023-05-10T03:41:29;4.15;;;1.48;;
45540;SDS011;31265;49.680;8.608;2023-05-10T03:44:00;2.00;;;0.85;;
45540;SDS011;31265;49.680;8.608;2023-05-10T03:46:28;3.13;;;0.93;;
45540;SDS011;31265;49.680;8.608;2023-05-10T03:48:57;3.25;;;0.95;;
45540;SDS011;31265;49.680;8.608;2023-05-10T03:51:27;3.17;;;1.60;;
45540;SDS011;31265;49.680;8.608;2023-05-10T03:53:55;2.22;;;1.10;;
45540;SDS011;31265;49.680;8.608;2023-05-10T03:56:23;4.97;;;1.35;;
45540;SDS011;31265;49.680;8.608;2023-05-10T03:58:55;1.75;;;0.90;;
45540;SDS011;31265;49.680;8.608;2023-05-10T04:01:23;2.70;;;1.00;;
45540;SDS011;31265;49.680;8.608;2023-05-10T04:03:51;2.30;;;1.00;;
45540;SDS011;31265;49.680;8.608;2023-05-10T04:06:22;2.35;;;1.00;;
45540;SDS011;31265;49.680;8.608;2023-05-10T04:08:53;1.80;;;0.90;;
45540;SDS011;31265;49.680;8.608;2023-05-10T04:11:23;2.13;;;1.02;;
45540;SDS011;31265;49.680;8.608;2023-05-10T04:13:51;1.63;;;0.93;;
45540;SDS011;31265;49.680;8.608;2023-05-10T04:16:19;2.72;;;1.10;;
45540;SDS011;31265;49.680;8.608;2023-05-10T04:18:48;2.10;;;1.00;;
45540;SDS011;31265;49.680;8.608;2023-05-10T04:21:16;3.38;;;0.82;;
45540;SDS011;31265;49.680;8.608;2023-05-10T04:23:45;1.38;;;0.80;;
45540;SDS011;31265;49.680;8.608;2023-05-10T04:26:14;2.40;;;1.05;;
45540;SDS011;31265;49.680;8.608;2023-05-10T04:28:43;3.33;;;1.63;;
45540;SDS011;31265;49.680;8.608;2023-05-10T04:31:13;2.03;;;1.10;;
45540;SDS011;31265;49.680;8.608;2023-05-10T04:33:42;3.55;;;1.40;;
45540;SDS011;31265;49.680;8.608;2023-05-10T04:36:13;1.85;;;1.00;;
45540;SDS011;31265;49.680;8.608;2023-05-10T04:38:41;2.75;;;1.48;;
45540;SDS011;31265;49.680;8.608;2023-05-10T04:41:10;4.37;;;1.17;;
45540;SDS011;31265;49.680;8.608;2023-05-10T04:43:41;1.60;;;0.90;;
45540;SDS011;31265;49.680;8.608;2023-05-10T04:46:09;3.03;;;1.20;;
45540;SDS011;31265;49.680;8.608;2023-05-10T04:48:37;2.03;;;1.20;;
45540;SDS011;31265;49.680;8.608;2023-05-10T04:51:07;2.90;;;1.63;;
45540;SDS011;31265;49.680;8.608;2023-05-10T04:53:45;2.57;;;1.20;;
45540;SDS011;31265;49.680;8.608;2023-05-10T04:56:32;1.75;;;0.88;;
45540;SDS011;31265;49.680;8.608;2023-05-10T04:59:01;2.95;;;1.63;;
45540;SDS011;31265;49.680;8.608;2023-05-10T05:04:01;4.38;;;1.00;;
45540;SDS011;31265;49.680;8.608;2023-05-10T05:06:29;2.35;;;1.30;;
45540;SDS011;31265;49.680;8.608;2023-05-10T05:09:03;3.42;;;1.13;;
45540;SDS011;31265;49.680;8.608;2023-05-10T05:11:31;2.30;;;1.35;;
45540;SDS011;31265;49.680;8.608;2023-05-10T05:14:11;1.98;;;1.08;;
45540;SDS011;31265;49.680;8.608;2023-05-10T05:16:44;2.05;;;1.10;;
45540;SDS011;31265;49.680;8.608;2023-05-10T05:19:16;2.58;;;1.35;;
45540;SDS011;31265;49.680;8.608;2023-05-10T05:21:50;2.35;;;1.20;;
45540;SDS011;31265;49.680;8.608;2023-05-10T05:24:26;2.22;;;1.13;;
45540;SDS011;31265;49.680;8.608;2023-05-10T05:27:03;2.22;;;1.08;;
45540;SDS011;31265;49.680;8.608;2023-05-10T05:29:34;1.65;;;0.85;;
45540;SDS011;31265;49.680;8.608;2023-05-10T05:32:04;2.22;;;0.93;;
45540;SDS011;31265;49.680;8.608;2023-05-10T05:34:35;2.72;;;1.17;;
45540;SDS011;31265;49.680;8.608;2023-05-10T05:37:03;1.83;;;0.70;;
45540;SDS011;31265;49.680;8.608;2023-05-10T05:39:32;5.78;;;1.30;;
45540;SDS011;31265;49.680;8.608;2023-05-10T05:42:04;2.53;;;1.40;;
45540;SDS011;31265;49.680;8.608;2023-05-10T05:44:33;3.30;;;1.38;;
45540;SDS011;31265;49.680;8.608;2023-05-10T05:47:03;2.70;;;1.10;;
45540;SDS011;31265;49.680;8.608;2023-05-10T05:49:34;3.03;;;1.42;;
45540;SDS011;31265;49.680;8.608;2023-05-10T05:52:03;3.15;;;1.50;;
45540;SDS011;31265;49.680;8.608;2023-05-10T05:54:32;2.35;;;1.00;;
45540;SDS011;31265;49.680;8.608;2023-05-10T05:57:00;2.25;;;1.10;;
45540;SDS011;31265;49.680;8.608;2023-05-10T05:59:30;2.70;;;1.23;;
45540;SDS011;31265;49.680;8.608;2023-05-10T06:01:59;3.08;;;1.40;;
45540;SDS011;31265;49.680;8.608;2023-05-10T06:04:28;12.13;;;1.75;;
45540;SDS011;31265;49.680;8.608;2023-05-10T06:06:56;8.20;;;1.23;;
45540;SDS011;31265;49.680;8.608;2023-05-10T06:09:25;1.95;;;0.90;;
45540;SDS011;31265;49.680;8.608;2023-05-10T06:11:53;2.15;;;1.10;;
45540;SDS011;31265;49.680;8.608;2023-05-10T06:14:22;2.45;;;1.05;;
45540;SDS011;31265;49.680;8.608;2023-05-10T06:16:50;2.70;;;1.30;;
45540;SDS011;31265;49.680;8.608;2023-05-10T06:19:20;3.20;;;1.35;;
45540;SDS011;31265;49.680;8.608;2023-05-10T06:21:49;2.00;;;0.90;;
45540;SDS011;31265;49.680;8.608;2023-05-10T06:24:19;2.47;;;1.40;;
45540;SDS011;31265;49.680;8.608;2023-05-10T06:26:48;2.75;;;1.30;;
45540;SDS011;31265;49.680;8.608;2023-05-10T06:29:17;4.63;;;1.00;;
45540;SDS011;31265;49.680;8.608;2023-05-10T06:31:46;1.80;;;1.10;;
45540;SDS011;31265;49.680;8.608;2023-05-10T06:34:14;2.15;;;1.20;;
45540;SDS011;31265;49.680;8.608;2023-05-10T06:36:45;3.20;;;1.37;;
45540;SDS011;31265;49.680;8.608;2023-05-10T06:39:13;2.13;;;1.10;;
45540;SDS011;31265;49.680;8.608;2023-05-10T06:41:43;3.88;;;1.55;;
45540;SDS011;31265;49.680;8.608;2023-05-10T06:44:11;3.13;;;1.55;;
45540;SDS011;31265;49.680;8.608;2023-05-10T06:46:39;5.53;;;0.93;;
45540;SDS011;31265;49.680;8.608;2023-05-10T06:49:09;2.60;;;1.33;;
45540;SDS011;31265;49.680;8.608;2023-05-10T06:51:37;2.40;;;1.25;;
45540;SDS011;31265;49.680;8.608;2023-05-10T06:54:07;4.00;;;1.17;;
45540;SDS011;31265;49.680;8.608;2023-05-10T06:56:35;2.88;;;1.20;;
45540;SDS011;31265;49.680;8.608;2023-05-10T06:59:03;2.13;;;1.20;;
45540;SDS011;31265;49.680;8.608;2023-05-10T07:01:32;2.97;;;1.65;;
45540;SDS011;31265;49.680;8.608;2023-05-10T07:04:01;3.47;;;1.65;;
45540;SDS011;31265;49.680;8.608;2023-05-10T07:06:29;4.38;;;1.65;;
45540;SDS011;31265;49.680;8.608;2023-05-10T07:09:00;3.40;;;1.42;;
45540;SDS011;31265;49.680;8.608;2023-05-10T07:11:30;2.58;;;1.25;;
45540;SDS011;31265;49.680;8.608;2023-05-10T07:13:58;3.70;;;1.33;;
45540;SDS011;31265;49.680;8.608;2023-05-10T07:16:26;2.22;;;1.27;;
45540;SDS011;31265;49.680;8.608;2023-05-10T07:18:55;2.40;;;1.30;;
45540;SDS011;31265;49.680;8.608;2023-05-10T07:21:23;2.17;;;1.30;;
45540;SDS011;31265;49.680;8.608;2023-05-10T07:23:55;4.35;;;1.45;;
45540;SDS011;31265;49.680;8.608;2023-05-10T07:26:23;5.57;;;1.20;;
45540;SDS011;31265;49.680;8.608;2023-05-10T07:28:53;4.15;;;1.60;;
45540;SDS011;31265;49.680;8.608;2023-05-10T07:31:21;4.03;;;1.33;;
45540;SDS011;31265;49.680;8.608;2023-05-10T07:33:50;2.55;;;1.30;;
45540;SDS011;31265;49.680;8.608;2023-05-10T07:36:18;5.38;;;1.48;;
45540;SDS011;31265;49.680;8.608;2023-05-10T07:38:46;2.92;;;1.52;;
45540;SDS011;31265;49.680;8.608;2023-05-10T07:41:16;3.55;;;1.58;;
45540;SDS011;31265;49.680;8.608;2023-05-10T07:43:44;3.25;;;1.38;;
45540;SDS011;31265;49.680;8.608;2023-05-10T07:46:14;2.67;;;1.50;;
45540;SDS011;31265;49.680;8.608;2023-05-10T07:48:43;2.47;;;1.48;;
45540;SDS011;31265;49.680;8.608;2023-05-10T07:51:11;1.88;;;1.02;;
45540;SDS011;31265;49.680;8.608;2023-05-10T07:53:40;2.25;;;1.27;;
45540;SDS011;31265;49.680;8.608;2023-05-10T07:56:21;6.90;;;1.50;;
45540;SDS011;31265;49.680;8.608;2023-05-10T07:58:52;2.20;;;0.85;;
45540;SDS011;31265;49.680;8.608;2023-05-10T08:01:22;3.73;;;1.20;;
45540;SDS011;31265;49.680;8.608;2023-05-10T08:03:51;7.28;;;1.17;;
45540;SDS011;31265;49.680;8.608;2023-05-10T08:06:20;3.90;;;1.10;;
45540;SDS011;31265;49.680;8.608;2023-05-10T08:08:49;3.43;;;1.10;;
45540;SDS011;31265;49.680;8.608;2023-05-10T08:11:18;2.08;;;0.90;;
45540;SDS011;31265;49.680;8.608;2023-05-10T08:13:48;3.25;;;1.10;;
45540;SDS011;31265;49.680;8.608;2023-05-10T08:16:18;1.88;;;1.08;;
45540;SDS011;31265;49.680;8.608;2023-05-10T08:18:48;2.97;;;1.02;;
45540;SDS011;31265;49.680;8.608;2023-05-10T08:21:17;2.65;;;1.08;;
45540;SDS011;31265;49.680;8.608;2023-05-10T08:23:46;1.23;;;0.60;;
45540;SDS011;31265;49.680;8.608;2023-05-10T08:26:18;1.17;;;0.60;;
45540;SDS011;31265;49.680;8.608;2023-05-10T08:31:16;1.75;;;0.60;;
45540;SDS011;31265;49.680;8.608;2023-05-10T08:33:45;0.80;;;0.30;;
45540;SDS011;31265;49.680;8.608;2023-05-10T08:36:14;2.47;;;0.43;;
45540;SDS011;31265;49.680;8.608;2023-05-10T08:38:49;0.82;;;0.40;;
45540;SDS011;31265;49.680;8.608;2023-05-10T08:41:18;1.83;;;0.35;;
45540;SDS011;31265;49.680;8.608;2023-05-10T08:47:48;1.30;;;0.40;;
45540;SDS011;31265;49.680;8.608;2023-05-10T08:50:27;0.52;;;0.30;;
45540;SDS011;31265;49.680;8.608;2023-05-10T08:53:00;2.72;;;0.20;;
45540;SDS011;31265;49.680;8.608;2023-05-10T08:55:53;2.97;;;0.70;;
45540;SDS011;31265;49.680;8.608;2023-05-10T08:58:36;0.40;;;0.20;;
45540;SDS011;31265;49.680;8.608;2023-05-10T09:01:10;1.30;;;0.40;;
45540;SDS011;31265;49.680;8.608;2023-05-10T09:03:58;0.20;;;0.10;;
45540;SDS011;31265;49.680;8.608;2023-05-10T09:07:10;0.77;;;0.25;;
45540;SDS011;31265;49.680;8.608;2023-05-10T09:12:54;0.40;;;0.20;;
45540;SDS011;31265;49.680;8.608;2023-05-10T09:15:25;0.40;;;0.08;;
45540;SDS011;31265;49.680;8.608;2023-05-10T09:17:54;0.60;;;0.10;;
45540;SDS011;31265;49.680;8.608;2023-05-10T09:20:24;1.15;;;0.20;;
45540;SDS011;31265;49.680;8.608;2023-05-10T09:22:53;0.22;;;0.10;;
45540;SDS011;31265;49.680;8.608;2023-05-10T09:25:23;0.65;;;0.13;;
45540;SDS011;31265;49.680;8.608;2023-05-10T09:27:52;1.05;;;0.20;;
45540;SDS011;31265;49.680;8.608;2023-05-10T09:30:23;0.63;;;0.30;;
45540;SDS011;31265;49.680;8.608;2023-05-10T09:32:53;0.35;;;0.15;;
45540;SDS011;31265;49.680;8.608;2023-05-10T09:35:22;0.20;;;0.10;;
45540;SDS011;31265;49.680;8.608;2023-05-10T09:37:57;0.13;;;0.10;;
45540;SDS011;31265;49.680;8.608;2023-05-10T09:40:30;0.73;;;0.20;;
45540;SDS011;31265;49.680;8.608;2023-05-10T09:42:59;1.48;;;0.90;;
45540;SDS011;31265;49.680;8.608;2023-05-10T09:45:29;0.65;;;0.20;;
45540;SDS011;31265;49.680;8.608;2023-05-10T09:48:01;0.57;;;0.20;;
45540;SDS011;31265;49.680;8.608;2023-05-10T09:50:31;0.15;;;0.08;;
45540;SDS011;31265;49.680;8.608;2023-05-10T09:53:01;0.88;;;0.30;;
45540;SDS011;31265;49.680;8.608;2023-05-10T09:55:39;0.73;;;0.10;;
45540;SDS011;31265;49.680;8.608;2023-05-10T09:58:09;0.77;;;0.30;;
45540;SDS011;31265;49.680;8.608;2023-05-10T10:00:39;0.35;;;0.20;;
45540;SDS011;31265;49.680;8.608;2023-05-10T10:03:11;0.80;;;0.30;;
45540;SDS011;31265;49.680;8.608;2023-05-10T10:05:41;0.68;;;0.40;;
45540;SDS011;31265;49.680;8.608;2023-05-10T10:08:11;1.25;;;0.50;;
45540;SDS011;31265;49.680;8.608;2023-05-10T10:10:41;2.03;;;0.45;;
45540;SDS011;31265;49.680;8.608;2023-05-10T10:13:12;0.98;;;0.28;;
45540;SDS011;31265;49.680;8.608;2023-05-10T10:15:43;2.05;;;0.77;;
45540;SDS011;31265;49.680;8.608;2023-05-10T10:18:18;1.42;;;0.32;;
45540;SDS011;31265;49.680;8.608;2023-05-10T10:20:51;0.73;;;0.30;;
45540;SDS011;31265;49.680;8.608;2023-05-10T10:23:21;1.42;;;0.40;;
45540;SDS011;31265;49.680;8.608;2023-05-10T10:25:51;0.82;;;0.35;;
45540;SDS011;31265;49.680;8.608;2023-05-10T10:28:24;0.40;;;0.30;;
45540;SDS011;31265;49.680;8.608;2023-05-10T10:31:01;0.98;;;0.43;;
45540;SDS011;31265;49.680;8.608;2023-05-10T10:33:51;0.47;;;0.32;;
45540;SDS011;31265;49.680;8.608;2023-05-10T10:36:29;0.88;;;0.40;;
45540;SDS011;31265;49.680;8.608;2023-05-10T10:38:58;1.13;;;0.40;;
45540;SDS011;31265;49.680;8.608;2023-05-10T10:41:34;2.42;;;0.60;;
45540;SDS011;31265;49.680;8.608;2023-05-10T10:44:27;0.75;;;0.40;;
45540;SDS011;31265;49.680;8.608;2023-05-10T10:50:03;0.80;;;0.40;;
45540;SDS011;31265;49.680;8.608;2023-05-10T10:52:33;0.30;;;0.15;;
45540;SDS011;31265;49.680;8.608;2023-05-10T10:55:03;0.90;;;0.52;;
45540;SDS011;31265;49.680;8.608;2023-05-10T10:57:47;4.93;;;0.40;;
45540;SDS011;31265;49.680;8.608;2023-05-10T11:00:23;0.47;;;0.30;;
45540;SDS011;31265;49.680;8.608;2023-05-10T11:02:58;1.25;;;0.17;;
45540;SDS011;31265;49.680;8.608;2023-05-10T11:05:37;0.63;;;0.28;;
45540;SDS011;31265;49.680;8.608;2023-05-10T11:08:09;2.80;;;0.30;;
45540;SDS011;31265;49.680;8.608;2023-05-10T11:10:39;0.17;;;0.10;;
45540;SDS011;31265;49.680;8.608;2023-05-10T11:13:21;0.32;;;0.20;;
45540;SDS011;31265;49.680;8.608;2023-05-10T11:15:57;0.73;;;0.20;;
45540;SDS011;31265;49.680;8.608;2023-05-10T11:18:26;0.10;;;0.00;;
45540;SDS011;31265;49.680;8.608;2023-05-10T11:20:57;0.35;;;0.13;;
45540;SDS011;31265;49.680;8.608;2023-05-10T11:23:30;0.20;;;0.10;;
45540;SDS011;31265;49.680;8.608;2023-05-10T11:25:59;1.08;;;0.20;;
45540;SDS011;31265;49.680;8.608;2023-05-10T11:28:30;1.73;;;0.35;;
45540;SDS011;31265;49.680;8.608;2023-05-10T11:31:01;0.32;;;0.20;;
45540;SDS011;31265;49.680;8.608;2023-05-10T11:33:30;0.13;;;0.10;;
45540;SDS011;31265;49.680;8.608;2023-05-10T11:35:59;0.60;;;0.20;;
45540;SDS011;31265;49.680;8.608;2023-05-10T11:38:28;0.63;;;0.20;;
45540;SDS011;31265;49.680;8.608;2023-05-10T11:41:02;0.25;;;0.10;;
45540;SDS011;31265;49.680;8.608;2023-05-10T11:43:31;0.85;;;0.28;;
45540;SDS011;31265;49.680;8.608;2023-05-10T11:46:00;3.38;;;0.20;;
45540;SDS011;31265;49.680;8.608;2023-05-10T11:48:29;2.08;;;0.20;;
45540;SDS011;31265;49.680;8.608;2023-05-10T11:53:26;1.75;;;0.35;;
45540;SDS011;31265;49.680;8.608;2023-05-10T11:55:55;0.32;;;0.10;;
45540;SDS011;31265;49.680;8.608;2023-05-10T11:58:24;0.77;;;0.20;;
45540;SDS011;31265;49.680;8.608;2023-05-10T12:00:54;6.40;;;0.70;;
45540;SDS011;31265;49.680;8.608;2023-05-10T12:03:22;0.43;;;0.20;;
45540;SDS011;31265;49.680;8.608;2023-05-10T12:05:51;0.90;;;0.10;;
45540;SDS011;31265;49.680;8.608;2023-05-10T12:08:20;0.57;;;0.32;;
45540;SDS011;31265;49.680;8.608;2023-05-10T12:10:50;1.90;;;0.50;;
45540;SDS011;31265;49.680;8.608;2023-05-10T12:13:19;1.52;;;0.20;;
45540;SDS011;31265;49.680;8.608;2023-05-10T12:15:48;0.77;;;0.20;;
45540;SDS011;31265;49.680;8.608;2023-05-10T12:18:22;1.02;;;0.30;;
45540;SDS011;31265;49.680;8.608;2023-05-10T12:20:51;2.35;;;0.45;;
45540;SDS011;31265;49.680;8.608;2023-05-10T12:23:20;3.60;;;0.30;;
45540;SDS011;31265;49.680;8.608;2023-05-10T12:25:50;1.33;;;0.30;;
45540;SDS011;31265;49.680;8.608;2023-05-10T12:28:20;0.95;;;0.22;;
45540;SDS011;31265;49.680;8.608;2023-05-10T12:30:49;0.10;;;0.08;;
45540;SDS011;31265;49.680;8.608;2023-05-10T12:33:24;0.60;;;0.30;;
45540;SDS011;31265;49.680;8.608;2023-05-10T12:35:53;1.00;;;0.17;;
45540;SDS011;31265;49.680;8.608;2023-05-10T12:38:26;2.20;;;0.20;;
45540;SDS011;31265;49.680;8.608;2023-05-10T12:40:57;2.85;;;0.20;;
45540;SDS011;31265;49.680;8.608;2023-05-10T12:43:26;1.85;;;0.25;;
45540;SDS011;31265;49.680;8.608;2023-05-10T12:45:54;1.48;;;0.20;;
45540;SDS011;31265;49.680;8.608;2023-05-10T12:48:24;1.87;;;0.30;;
45540;SDS011;31265;49.680;8.608;2023-05-10T12:50:52;0.30;;;0.10;;
45540;SDS011;31265;49.680;8.608;2023-05-10T12:53:21;0.88;;;0.13;;
45540;SDS011;31265;49.680;8.608;2023-05-10T12:55:49;2.08;;;0.40;;
45540;SDS011;31265;49.680;8.608;2023-05-10T12:58:18;0.35;;;0.13;;
45540;SDS011;31265;49.680;8.608;2023-05-10T13:00:53;0.57;;;0.32;;
45540;SDS011;31265;49.680;8.608;2023-05-10T13:03:25;1.55;;;0.28;;
45540;SDS011;31265;49.680;8.608;2023-05-10T13:05:54;2.60;;;0.50;;
45540;SDS011;31265;49.680;8.608;2023-05-10T13:08:23;1.25;;;0.30;;
45540;SDS011;31265;49.680;8.608;2023-05-10T13:10:52;1.42;;;0.40;;
45540;SDS011;31265;49.680;8.608;2023-05-10T13:13:20;0.73;;;0.20;;
45540;SDS011;31265;49.680;8.608;2023-05-10T13:15:49;1.10;;;0.28;;
45540;SDS011;31265;49.680;8.608;2023-05-10T13:18:18;0.30;;;0.20;;
45540;SDS011;31265;49.680;8.608;2023-05-10T13:20:47;1.58;;;0.30;;
45540;SDS011;31265;49.680;8.608;2023-05-10T13:23:16;0.95;;;0.28;;
45540;SDS011;31265;49.680;8.608;2023-05-10T13:25:44;3.45;;;0.43;;
45540;SDS011;31265;49.680;8.608;2023-05-10T13:28:12;3.17;;;0.35;;
45540;SDS011;31265;49.680;8.608;2023-05-10T13:30:41;0.87;;;0.30;;
45540;SDS011;31265;49.680;8.608;2023-05-10T13:33:09;2.38;;;0.20;;
45540;SDS011;31265;49.680;8.608;2023-05-10T13:35:38;2.20;;;0.57;;
45540;SDS011;31265;49.680;8.608;2023-05-10T13:38:08;1.42;;;0.40;;
45540;SDS011;31265;49.680;8.608;2023-05-10T13:40:37;0.88;;;0.20;;
45540;SDS011;31265;49.680;8.608;2023-05-10T13:43:05;1.13;;;0.33;;
45540;SDS011;31265;49.680;8.608;2023-05-10T13:45:35;3.50;;;0.40;;
45540;SDS011;31265;49.680;8.608;2023-05-10T13:48:04;1.45;;;0.30;;
45540;SDS011;31265;49.680;8.608;2023-05-10T13:50:32;1.88;;;0.52;;
45540;SDS011;31265;49.680;8.608;2023-05-10T13:53:01;1.13;;;0.30;;
45540;SDS011;31265;49.680;8.608;2023-05-10T13:55:31;0.20;;;0.10;;
45540;SDS011;31265;49.680;8.608;2023-05-10T13:58:00;0.63;;;0.20;;
45540;SDS011;31265;49.680;8.608;2023-05-10T14:00:29;1.08;;;0.40;;
45540;SDS011;31265;49.680;8.608;2023-05-10T14:02:57;0.30;;;0.20;;
45540;SDS011;31265;49.680;8.608;2023-05-10T14:05:26;0.30;;;0.10;;
45540;SDS011;31265;49.680;8.608;2023-05-10T14:07:55;1.75;;;0.32;;
45540;SDS011;31265;49.680;8.608;2023-05-10T14:10:24;1.77;;;0.57;;
45540;SDS011;31265;49.680;8.608;2023-05-10T14:12:54;1.88;;;0.30;;
45540;SDS011;31265;49.680;8.608;2023-05-10T14:17:50;1.25;;;0.20;;
45540;SDS011;31265;49.680;8.608;2023-05-10T14:20:19;0.40;;;0.10;;
45540;SDS011;31265;49.680;8.608;2023-05-10T14:22:47;1.20;;;0.40;;
45540;SDS011;31265;49.680;8.608;2023-05-10T14:25:17;0.47;;;0.30;;
45540;SDS011;31265;49.680;8.608;2023-05-10T14:27:46;0.63;;;0.10;;
45540;SDS011;31265;49.680;8.608;2023-05-10T14:30:16;1.20;;;0.30;;
45540;SDS011;31265;49.680;8.608;2023-05-10T14:32:44;0.77;;;0.20;;
45540;SDS011;31265;49.680;8.608;2023-05-10T14:35:13;1.45;;;0.30;;
45540;SDS011;31265;49.680;8.608;2023-05-10T14:37:45;2.53;;;0.43;;
45540;SDS011;31265;49.680;8.608;2023-05-10T14:40:13;0.20;;;0.10;;
45540;SDS011;31265;49.680;8.608;2023-05-10T14:42:43;1.25;;;0.20;;
45540;SDS011;31265;49.680;8.608;2023-05-10T14:45:11;1.33;;;0.30;;
45540;SDS011;31265;49.680;8.608;2023-05-10T14:47:45;1.17;;;0.13;;
45540;SDS011;31265;49.680;8.608;2023-05-10T14:50:13;1.38;;;0.20;;
45540;SDS011;31265;49.680;8.608;2023-05-10T14:53:01;0.10;;;0.10;;
45540;SDS011;31265;49.680;8.608;2023-05-10T14:55:29;1.90;;;0.30;;
45540;SDS011;31265;49.680;8.608;2023-05-10T14:57:57;0.70;;;0.22;;
45540;SDS011;31265;49.680;8.608;2023-05-10T15:00:26;0.32;;;0.20;;
45540;SDS011;31265;49.680;8.608;2023-05-10T15:02:58;0.57;;;0.28;;
45540;SDS011;31265;49.680;8.608;2023-05-10T15:05:27;0.85;;;0.40;;
45540;SDS011;31265;49.680;8.608;2023-05-10T15:07:56;0.93;;;0.37;;
45540;SDS011;31265;49.680;8.608;2023-05-10T15:10:24;1.55;;;0.30;;
45540;SDS011;31265;49.680;8.608;2023-05-10T15:12:53;1.85;;;0.30;;
45540;SDS011;31265;49.680;8.608;2023-05-10T15:15:21;0.43;;;0.15;;
45540;SDS011;31265;49.680;8.608;2023-05-10T15:17:50;1.42;;;0.50;;
45540;SDS011;31265;49.680;8.608;2023-05-10T15:20:20;2.80;;;0.50;;
45540;SDS011;31265;49.680;8.608;2023-05-10T15:22:50;2.25;;;0.28;;
45540;SDS011;31265;49.680;8.608;2023-05-10T15:25:18;9.13;;;0.73;;
45540;SDS011;31265;49.680;8.608;2023-05-10T15:27:47;1.85;;;0.43;;
45540;SDS011;31265;49.680;8.608;2023-05-10T15:30:15;0.30;;;0.10;;
45540;SDS011;31265;49.680;8.608;2023-05-10T15:32:44;0.77;;;0.20;;
45540;SDS011;31265;49.680;8.608;2023-05-10T15:35:12;1.00;;;0.25;;
45540;SDS011;31265;49.680;8.608;2023-05-10T15:37:43;0.40;;;0.20;;
45540;SDS011;31265;49.680;8.608;2023-05-10T15:42:40;0.82;;;0.22;;